Air Quality Table

TIMESTAMP NO2 SO2 O3 PM10 PM2.5 CO TEMP HUM WS WD NO
2021-10-17 16:00 2.11 µg/m3 0.48 µg/m3 115.25 µg/m3 5.59 µg/m3 4.49 µg/m3 0.18 mg/m3 20.96 °C 62.3 % 2.87 m/s 263.08 Deg 0.37 µg/m3
2021-10-17 15:00 2.34 µg/m3 0.58 µg/m3 114.7 µg/m3 6.07 µg/m3 3.42 µg/m3 0.19 mg/m3 21.07 °C 62.51 % 3.04 m/s 209.59 Deg 0.39 µg/m3
2021-10-17 14:00 2.5 µg/m3 0.7 µg/m3 113.85 µg/m3 5.41 µg/m3 3.43 µg/m3 0.19 mg/m3 21.15 °C 61.73 % 2.73 m/s 185.21 Deg 0.39 µg/m3
2021-10-17 13:00 2.36 µg/m3 0.64 µg/m3 109.09 µg/m3 5.64 µg/m3 3.99 µg/m3 0.18 mg/m3 21.12 °C 62.52 % 3.37 m/s 133.19 Deg 0.4 µg/m3
2021-10-17 12:00 2.27 µg/m3 0.66 µg/m3 107.87 µg/m3 6.66 µg/m3 5.01 µg/m3 0.18 mg/m3 20.98 °C 61.7 % 3.51 m/s 205.05 Deg 0.41 µg/m3
2021-10-17 11:00 2.36 µg/m3 0.51 µg/m3 107.1 µg/m3 6.04 µg/m3 3.76 µg/m3 0.19 mg/m3 20.93 °C 62.38 % 3.25 m/s 102.93 Deg 0.41 µg/m3
2021-10-17 10:00 2.4 µg/m3 0.42 µg/m3 106.47 µg/m3 5.59 µg/m3 3.87 µg/m3 0.19 mg/m3 20.67 °C 62.34 % 2.4 m/s 156.72 Deg 0.41 µg/m3
2021-10-17 09:00 2.33 µg/m3 0.43 µg/m3 106.08 µg/m3 5.21 µg/m3 3.8 µg/m3 0.18 mg/m3 20.42 °C 62.7 % 1.52 m/s 195.32 Deg 0.41 µg/m3
2021-10-17 08:00 2.29 µg/m3 0.43 µg/m3 103.34 µg/m3 4.76 µg/m3 4.2 µg/m3 0.18 mg/m3 19.83 °C 65.7 % 1.26 m/s 210.86 Deg 0.36 µg/m3
2021-10-17 07:00 1.97 µg/m3 0.46 µg/m3 103.66 µg/m3 5.99 µg/m3 4.26 µg/m3 0.18 mg/m3 19.02 °C 67.61 % 1.94 m/s 239.7 Deg 0.32 µg/m3
2021-10-17 06:00 1.97 µg/m3 0.46 µg/m3 102.92 µg/m3 4.85 µg/m3 4.33 µg/m3 0.18 mg/m3 18.83 °C 69.1 % 2.28 m/s 257.05 Deg 0.32 µg/m3
2021-10-17 05:00 1.88 µg/m3 0.35 µg/m3 102.23 µg/m3 5.81 µg/m3 3.94 µg/m3 0.15 mg/m3 18.75 °C 70.63 % 2.3 m/s 287.38 Deg 0.32 µg/m3
2021-10-17 04:00 1.82 µg/m3 0.38 µg/m3 102.87 µg/m3 5.88 µg/m3 3.63 µg/m3 0.19 mg/m3 18.91 °C 71.41 % 2.79 m/s 266 Deg 0.33 µg/m3
2021-10-17 03:00 1.85 µg/m3 0.3 µg/m3 102.82 µg/m3 5.78 µg/m3 3.92 µg/m3 0.19 mg/m3 18.9 °C 72.2 % 2.65 m/s 266.41 Deg 0.33 µg/m3
2021-10-17 02:00 2.09 µg/m3 0.24 µg/m3 102.45 µg/m3 5.32 µg/m3 3.51 µg/m3 0.19 mg/m3 18.81 °C 72.49 % 2.62 m/s 264.71 Deg 0.33 µg/m3
2021-10-17 01:00 2.01 µg/m3 0.26 µg/m3 103.22 µg/m3 5.86 µg/m3 4.27 µg/m3 0.19 mg/m3 18.97 °C 72.34 % 3.29 m/s 263.06 Deg 0.33 µg/m3
2021-10-17 00:00 2.19 µg/m3 0.27 µg/m3 103.63 µg/m3 6.24 µg/m3 3.99 µg/m3 0.19 mg/m3 19.04 °C 71.26 % 3.57 m/s 248.44 Deg 0.32 µg/m3
2021-10-16 23:00 2.04 µg/m3 0.2 µg/m3 103.92 µg/m3 6.23 µg/m3 4 µg/m3 0.19 mg/m3 19.16 °C 70.23 % 3.5 m/s 240.86 Deg 0.32 µg/m3
2021-10-16 22:00 1.93 µg/m3 0.2 µg/m3 102.72 µg/m3 5.67 µg/m3 3.85 µg/m3 0.19 mg/m3 19.28 °C 69.18 % 3.61 m/s 265.19 Deg 0.33 µg/m3
2021-10-16 21:00 1.89 µg/m3 0.18 µg/m3 100.87 µg/m3 6.56 µg/m3 3.58 µg/m3 0.19 mg/m3 19.33 °C 69.94 % 3.52 m/s 269.53 Deg 0.34 µg/m3
2021-10-16 20:00 2 µg/m3 0.19 µg/m3 101.29 µg/m3 6.71 µg/m3 3.98 µg/m3 0.19 mg/m3 19.37 °C 70.51 % 3.96 m/s 249.79 Deg 0.33 µg/m3
2021-10-16 19:00 1.87 µg/m3 0.18 µg/m3 102.18 µg/m3 6.07 µg/m3 3.82 µg/m3 0.19 mg/m3 19.46 °C 68.8 % 4.37 m/s 190.14 Deg 0.33 µg/m3

It is to be noted that the data is provisional and subject to quality assurance procedures. For validated data kindly refer your request to contact.air@era.org.mt